sensor_id;sensor_type;location;lat;lon;timestamp;pressure;altitude;pressure_sealevel;temperature;humidity
19795;BME280;10057;59.402;17.866;2023-03-19T00:00:28;101093.81;;;4.14;82.23
19795;BME280;10057;59.402;17.866;2023-03-19T00:02:54;101092.03;;;4.13;82.56
19795;BME280;10057;59.402;17.866;2023-03-19T00:05:21;101085.94;;;4.09;82.58
19795;BME280;10057;59.402;17.866;2023-03-19T00:07:48;101085.94;;;4.06;82.62
19795;BME280;10057;59.402;17.866;2023-03-19T00:10:15;101091.22;;;4.03;82.49
19795;BME280;10057;59.402;17.866;2023-03-19T00:12:41;101084.22;;;4.03;83.07
19795;BME280;10057;59.402;17.866;2023-03-19T00:15:09;101095.59;;;4.04;82.63
19795;BME280;10057;59.402;17.866;2023-03-19T00:17:40;101094.72;;;4.02;82.92
19795;BME280;10057;59.402;17.866;2023-03-19T00:20:09;101100.84;;;4.02;82.75
19795;BME280;10057;59.402;17.866;2023-03-19T00:22:36;101101.72;;;4.03;82.90
19795;BME280;10057;59.402;17.866;2023-03-19T00:25:03;101100.00;;;4.00;83.12
19795;BME280;10057;59.402;17.866;2023-03-19T00:27:30;101104.34;;;4.00;82.74
19795;BME280;10057;59.402;17.866;2023-03-19T00:29:57;101111.34;;;4.02;82.67
19795;BME280;10057;59.402;17.866;2023-03-19T00:32:23;101109.59;;;4.06;83.13
19795;BME280;10057;59.402;17.866;2023-03-19T00:34:51;101112.22;;;4.08;83.14
19795;BME280;10057;59.402;17.866;2023-03-19T00:37:18;101111.31;;;4.12;83.13
19795;BME280;10057;59.402;17.866;2023-03-19T00:39:44;101109.56;;;4.12;82.93
19795;BME280;10057;59.402;17.866;2023-03-19T00:42:11;101098.16;;;4.13;82.93
19795;BME280;10057;59.402;17.866;2023-03-19T00:44:38;101104.31;;;4.14;82.88
19795;BME280;10057;59.402;17.866;2023-03-19T00:47:05;101111.31;;;4.15;82.65
19795;BME280;10057;59.402;17.866;2023-03-19T00:49:32;101113.94;;;4.12;82.96
19795;BME280;10057;59.402;17.866;2023-03-19T00:51:59;101107.81;;;4.10;82.98
19795;BME280;10057;59.402;17.866;2023-03-19T00:54:25;101121.84;;;4.04;82.60
19795;BME280;10057;59.402;17.866;2023-03-19T00:56:52;101118.38;;;3.97;82.67
19795;BME280;10057;59.402;17.866;2023-03-19T00:59:19;101123.63;;;3.93;82.50
19795;BME280;10057;59.402;17.866;2023-03-19T01:01:46;101117.53;;;3.88;82.71
19795;BME280;10057;59.402;17.866;2023-03-19T01:04:12;101121.91;;;3.83;82.87
19795;BME280;10057;59.402;17.866;2023-03-19T01:06:40;101118.44;;;3.76;82.80
19795;BME280;10057;59.402;17.866;2023-03-19T01:09:07;101114.94;;;3.72;82.89
19795;BME280;10057;59.402;17.866;2023-03-19T01:11:34;101119.34;;;3.72;83.17
19795;BME280;10057;59.402;17.866;2023-03-19T01:14:01;101132.44;;;3.78;83.23
19795;BME280;10057;59.402;17.866;2023-03-19T01:16:28;101120.19;;;3.83;82.96
19795;BME280;10057;59.402;17.866;2023-03-19T01:18:55;101120.16;;;3.88;83.28
19795;BME280;10057;59.402;17.866;2023-03-19T01:21:22;101128.00;;;3.92;83.17
19795;BME280;10057;59.402;17.866;2023-03-19T01:23:48;101124.50;;;3.95;83.17
19795;BME280;10057;59.402;17.866;2023-03-19T01:26:17;101126.25;;;3.99;83.11
19795;BME280;10057;59.402;17.866;2023-03-19T01:28:44;101126.22;;;4.02;83.04
19795;BME280;10057;59.402;17.866;2023-03-19T01:31:11;101126.25;;;3.99;82.95
19795;BME280;10057;59.402;17.866;2023-03-19T01:33:38;101125.34;;;4.00;83.08
19795;BME280;10057;59.402;17.866;2023-03-19T01:36:05;101132.34;;;4.02;82.98
19795;BME280;10057;59.402;17.866;2023-03-19T01:38:32;101130.59;;;4.04;83.16
19795;BME280;10057;59.402;17.866;2023-03-19T01:40:59;101136.69;;;4.07;83.03
19795;BME280;10057;59.402;17.866;2023-03-19T01:43:28;101137.59;;;4.09;83.00
19795;BME280;10057;59.402;17.866;2023-03-19T01:46:00;101141.09;;;4.08;82.65
19795;BME280;10057;59.402;17.866;2023-03-19T01:48:43;101143.72;;;4.06;83.10
19795;BME280;10057;59.402;17.866;2023-03-19T01:51:14;101140.22;;;4.07;83.11
19795;BME280;10057;59.402;17.866;2023-03-19T01:53:46;101149.84;;;4.11;83.02
19795;BME280;10057;59.402;17.866;2023-03-19T01:56:21;101143.69;;;4.15;82.85
19795;BME280;10057;59.402;17.866;2023-03-19T01:58:52;101151.56;;;4.15;83.19
19795;BME280;10057;59.402;17.866;2023-03-19T02:01:22;101157.69;;;4.16;82.88
19795;BME280;10057;59.402;17.866;2023-03-19T02:03:49;101147.19;;;4.17;83.21
19795;BME280;10057;59.402;17.866;2023-03-19T02:06:19;101155.94;;;4.15;82.60
19795;BME280;10057;59.402;17.866;2023-03-19T02:08:48;101159.47;;;4.14;82.85
19795;BME280;10057;59.402;17.866;2023-03-19T02:11:15;101163.84;;;4.12;82.90
19795;BME280;10057;59.402;17.866;2023-03-19T02:13:42;101155.94;;;4.10;82.89
19795;BME280;10057;59.402;17.866;2023-03-19T02:16:09;101156.84;;;4.11;83.09
19795;BME280;10057;59.402;17.866;2023-03-19T02:18:36;101159.47;;;4.14;83.07
19795;BME280;10057;59.402;17.866;2023-03-19T02:21:12;101161.19;;;4.16;83.08
19795;BME280;10057;59.402;17.866;2023-03-19T02:24:02;101153.28;;;4.19;82.89
19795;BME280;10057;59.402;17.866;2023-03-19T02:26:34;101160.28;;;4.20;83.09
19795;BME280;10057;59.402;17.866;2023-03-19T02:29:01;101156.78;;;4.21;82.91
19795;BME280;10057;59.402;17.866;2023-03-19T02:31:29;101165.53;;;4.20;82.83
19795;BME280;10057;59.402;17.866;2023-03-19T02:36:28;101168.16;;;4.20;82.87
19795;BME280;10057;59.402;17.866;2023-03-19T02:38:59;101172.56;;;4.21;83.12
19795;BME280;10057;59.402;17.866;2023-03-19T02:41:29;101169.94;;;4.21;83.04
19795;BME280;10057;59.402;17.866;2023-03-19T02:43:59;101171.66;;;4.22;83.02
19795;BME280;10057;59.402;17.866;2023-03-19T02:46:27;101176.03;;;4.23;82.91
19795;BME280;10057;59.402;17.866;2023-03-19T02:48:54;101181.28;;;4.23;82.94
19795;BME280;10057;59.402;17.866;2023-03-19T02:51:20;101182.16;;;4.22;82.82
19795;BME280;10057;59.402;17.866;2023-03-19T02:53:47;101181.31;;;4.22;82.85
19795;BME280;10057;59.402;17.866;2023-03-19T02:56:14;101197.94;;;4.21;82.75
19795;BME280;10057;59.402;17.866;2023-03-19T02:58:40;101198.81;;;4.20;82.95
19795;BME280;10057;59.402;17.866;2023-03-19T03:01:07;101204.97;;;4.17;83.15
19795;BME280;10057;59.402;17.866;2023-03-19T03:03:34;101197.94;;;4.16;82.90
19795;BME280;10057;59.402;17.866;2023-03-19T03:06:00;101203.19;;;4.16;82.75
19795;BME280;10057;59.402;17.866;2023-03-19T03:08:27;101205.81;;;4.16;82.86
19795;BME280;10057;59.402;17.866;2023-03-19T03:10:54;101212.84;;;4.17;82.93
19795;BME280;10057;59.402;17.866;2023-03-19T03:13:20;101208.44;;;4.16;83.00
19795;BME280;10057;59.402;17.866;2023-03-19T03:15:47;101204.97;;;4.17;82.83
19795;BME280;10057;59.402;17.866;2023-03-19T03:18:14;101207.59;;;4.17;82.96
19795;BME280;10057;59.402;17.866;2023-03-19T03:20:40;101204.97;;;4.17;83.10
19795;BME280;10057;59.402;17.866;2023-03-19T03:23:08;101208.44;;;4.19;82.67
19795;BME280;10057;59.402;17.866;2023-03-19T03:25:35;101199.69;;;4.19;82.81
19795;BME280;10057;59.402;17.866;2023-03-19T03:28:01;101205.81;;;4.22;82.87
19795;BME280;10057;59.402;17.866;2023-03-19T03:30:28;101205.81;;;4.22;82.94
19795;BME280;10057;59.402;17.866;2023-03-19T03:32:55;101193.53;;;4.23;83.04
19795;BME280;10057;59.402;17.866;2023-03-19T03:35:22;101194.41;;;4.23;82.99
19795;BME280;10057;59.402;17.866;2023-03-19T03:37:49;101204.94;;;4.20;82.52
19795;BME280;10057;59.402;17.866;2023-03-19T03:40:17;101213.72;;;4.09;82.21
19795;BME280;10057;59.402;17.866;2023-03-19T03:42:43;101205.91;;;3.95;82.48
19795;BME280;10057;59.402;17.866;2023-03-19T03:45:10;101209.41;;;3.89;82.82
19795;BME280;10057;59.402;17.866;2023-03-19T03:47:37;101205.91;;;3.89;82.96
19795;BME280;10057;59.402;17.866;2023-03-19T03:50:05;101209.41;;;3.89;82.93
19795;BME280;10057;59.402;17.866;2023-03-19T03:52:32;101208.53;;;3.92;83.01
19795;BME280;10057;59.402;17.866;2023-03-19T03:55:00;101212.88;;;3.93;83.03
19795;BME280;10057;59.402;17.866;2023-03-19T03:57:27;101215.53;;;3.93;83.06
19795;BME280;10057;59.402;17.866;2023-03-19T03:59:53;101205.06;;;3.90;82.72
19795;BME280;10057;59.402;17.866;2023-03-19T04:02:20;101204.16;;;3.88;83.01
19795;BME280;10057;59.402;17.866;2023-03-19T04:04:47;101211.16;;;3.86;82.76
19795;BME280;10057;59.402;17.866;2023-03-19T04:07:14;101215.56;;;3.84;82.80
19795;BME280;10057;59.402;17.866;2023-03-19T04:09:41;101223.41;;;3.82;82.89
19795;BME280;10057;59.402;17.866;2023-03-19T04:12:08;101219.94;;;3.82;83.05
19795;BME280;10057;59.402;17.866;2023-03-19T04:14:35;101218.16;;;3.79;82.77
19795;BME280;10057;59.402;17.866;2023-03-19T04:17:02;101223.41;;;3.79;82.78
19795;BME280;10057;59.402;17.866;2023-03-19T04:19:28;101223.44;;;3.77;82.94
19795;BME280;10057;59.402;17.866;2023-03-19T04:21:55;101230.44;;;3.75;82.77
19795;BME280;10057;59.402;17.866;2023-03-19T04:24:22;101234.81;;;3.70;82.61
19795;BME280;10057;59.402;17.866;2023-03-19T04:26:49;101231.31;;;3.68;82.77
19795;BME280;10057;59.402;17.866;2023-03-19T04:29:16;101238.34;;;3.69;82.82
19795;BME280;10057;59.402;17.866;2023-03-19T04:31:44;101237.44;;;3.66;82.78
19795;BME280;10057;59.402;17.866;2023-03-19T04:34:11;101240.06;;;3.67;82.67
19795;BME280;10057;59.402;17.866;2023-03-19T04:36:38;101240.06;;;3.69;82.79
19795;BME280;10057;59.402;17.866;2023-03-19T04:39:05;101238.31;;;3.71;82.62
19795;BME280;10057;59.402;17.866;2023-03-19T04:41:31;101233.06;;;3.72;82.74
19795;BME280;10057;59.402;17.866;2023-03-19T04:43:58;101240.06;;;3.73;82.65
19795;BME280;10057;59.402;17.866;2023-03-19T04:46:25;101240.94;;;3.74;82.85
19795;BME280;10057;59.402;17.866;2023-03-19T04:48:51;101238.31;;;3.74;82.65
19795;BME280;10057;59.402;17.866;2023-03-19T04:51:18;101246.19;;;3.74;82.64
19795;BME280;10057;59.402;17.866;2023-03-19T04:53:46;101253.19;;;3.73;82.81
19795;BME280;10057;59.402;17.866;2023-03-19T04:56:14;101246.16;;;3.72;82.81
19795;BME280;10057;59.402;17.866;2023-03-19T04:58:44;101252.31;;;3.71;82.69
19795;BME280;10057;59.402;17.866;2023-03-19T05:01:11;101254.94;;;3.70;82.73
19795;BME280;10057;59.402;17.866;2023-03-19T05:03:38;101247.94;;;3.72;82.69
19795;BME280;10057;59.402;17.866;2023-03-19T05:06:05;101242.69;;;3.72;82.62
19795;BME280;10057;59.402;17.866;2023-03-19T05:08:32;101236.56;;;3.71;82.72
19795;BME280;10057;59.402;17.866;2023-03-19T05:10:59;101240.94;;;3.72;82.61
19795;BME280;10057;59.402;17.866;2023-03-19T05:13:26;101238.31;;;3.72;82.85
19795;BME280;10057;59.402;17.866;2023-03-19T05:15:53;101248.78;;;3.72;82.74
19795;BME280;10057;59.402;17.866;2023-03-19T05:18:21;101259.28;;;3.72;82.61
19795;BME280;10057;59.402;17.866;2023-03-19T05:20:48;101248.78;;;3.72;82.72
19795;BME280;10057;59.402;17.866;2023-03-19T05:23:15;101252.31;;;3.71;82.59
19795;BME280;10057;59.402;17.866;2023-03-19T05:25:43;101268.06;;;3.65;81.96
19795;BME280;10057;59.402;17.866;2023-03-19T05:28:10;101273.31;;;3.56;82.53
19795;BME280;10057;59.402;17.866;2023-03-19T05:30:36;101269.81;;;3.48;82.72
19795;BME280;10057;59.402;17.866;2023-03-19T05:33:04;101275.91;;;3.48;82.68
19795;BME280;10057;59.402;17.866;2023-03-19T05:35:31;101267.19;;;3.49;82.90
19795;BME280;10057;59.402;17.866;2023-03-19T05:37:57;101276.78;;;3.52;82.77
19795;BME280;10057;59.402;17.866;2023-03-19T05:40:24;101286.44;;;3.53;82.73
19795;BME280;10057;59.402;17.866;2023-03-19T05:42:51;101290.78;;;3.51;82.71
19795;BME280;10057;59.402;17.866;2023-03-19T05:45:18;101301.28;;;3.48;82.71
19795;BME280;10057;59.402;17.866;2023-03-19T05:47:48;101296.03;;;3.48;82.83
19795;BME280;10057;59.402;17.866;2023-03-19T05:50:16;101296.94;;;3.53;82.90
19795;BME280;10057;59.402;17.866;2023-03-19T05:52:43;101290.81;;;3.57;82.83
19795;BME280;10057;59.402;17.866;2023-03-19T05:55:10;101289.03;;;3.62;82.72
19795;BME280;10057;59.402;17.866;2023-03-19T05:57:37;101303.03;;;3.66;82.88
19795;BME280;10057;59.402;17.866;2023-03-19T06:00:05;101306.56;;;3.63;82.73
19795;BME280;10057;59.402;17.866;2023-03-19T06:02:33;101314.44;;;3.60;82.77
19795;BME280;10057;59.402;17.866;2023-03-19T06:05:01;101312.69;;;3.56;83.02
19795;BME280;10057;59.402;17.866;2023-03-19T06:07:27;101315.31;;;3.56;82.62
19795;BME280;10057;59.402;17.866;2023-03-19T06:09:54;101313.53;;;3.58;82.78
19795;BME280;10057;59.402;17.866;2023-03-19T06:12:21;101304.78;;;3.62;83.03
19795;BME280;10057;59.402;17.866;2023-03-19T06:14:48;101306.56;;;3.69;82.99
19795;BME280;10057;59.402;17.866;2023-03-19T06:17:15;101307.41;;;3.76;82.98
19795;BME280;10057;59.402;17.866;2023-03-19T06:19:41;101314.44;;;3.83;83.04
19795;BME280;10057;59.402;17.866;2023-03-19T06:22:08;101321.44;;;3.87;82.81
19795;BME280;10057;59.402;17.866;2023-03-19T06:24:35;101322.28;;;3.85;82.90
19795;BME280;10057;59.402;17.866;2023-03-19T06:27:02;101331.91;;;3.81;82.68
19795;BME280;10057;59.402;17.866;2023-03-19T06:29:29;101338.03;;;3.78;82.71
19795;BME280;10057;59.402;17.866;2023-03-19T06:31:56;101336.28;;;3.74;82.56
19795;BME280;10057;59.402;17.866;2023-03-19T06:34:23;101338.03;;;3.71;82.84
19795;BME280;10057;59.402;17.866;2023-03-19T06:36:51;101334.53;;;3.72;82.85
19795;BME280;10057;59.402;17.866;2023-03-19T06:39:19;101331.06;;;3.70;82.92
19795;BME280;10057;59.402;17.866;2023-03-19T06:41:45;101338.03;;;3.68;83.13
19795;BME280;10057;59.402;17.866;2023-03-19T06:44:12;101332.81;;;3.66;82.88
19795;BME280;10057;59.402;17.866;2023-03-19T06:46:39;101340.66;;;3.65;83.12
19795;BME280;10057;59.402;17.866;2023-03-19T06:49:06;101335.44;;;3.69;83.34
19795;BME280;10057;59.402;17.866;2023-03-19T06:51:32;101330.19;;;3.74;83.39
19795;BME280;10057;59.402;17.866;2023-03-19T06:53:59;101338.03;;;3.82;83.26
19795;BME280;10057;59.402;17.866;2023-03-19T06:56:26;101342.44;;;3.90;83.35
19795;BME280;10057;59.402;17.866;2023-03-19T06:58:52;101346.81;;;3.97;83.15
19795;BME280;10057;59.402;17.866;2023-03-19T07:01:19;101342.41;;;4.06;83.25
19795;BME280;10057;59.402;17.866;2023-03-19T07:03:47;101348.53;;;4.12;83.08
19795;BME280;10057;59.402;17.866;2023-03-19T07:06:13;101351.16;;;4.15;83.10
19795;BME280;10057;59.402;17.866;2023-03-19T07:08:40;101356.38;;;4.20;83.11
19795;BME280;10057;59.402;17.866;2023-03-19T07:11:12;101353.78;;;4.24;83.02
19795;BME280;10057;59.402;17.866;2023-03-19T07:13:39;101353.78;;;4.27;83.10
19795;BME280;10057;59.402;17.866;2023-03-19T07:16:06;101355.50;;;4.35;83.29
19795;BME280;10057;59.402;17.866;2023-03-19T07:18:33;101352.84;;;4.41;83.35
19795;BME280;10057;59.402;17.866;2023-03-19T07:21:00;101351.97;;;4.46;83.11
19795;BME280;10057;59.402;17.866;2023-03-19T07:23:27;101358.09;;;4.51;83.04
19795;BME280;10057;59.402;17.866;2023-03-19T07:25:54;101358.97;;;4.58;83.13
19795;BME280;10057;59.402;17.866;2023-03-19T07:28:21;101358.94;;;4.64;83.17
19795;BME280;10057;59.402;17.866;2023-03-19T07:30:50;101365.06;;;4.69;83.06
19795;BME280;10057;59.402;17.866;2023-03-19T07:33:19;101362.41;;;4.75;82.93
19795;BME280;10057;59.402;17.866;2023-03-19T07:35:45;101358.03;;;4.76;83.14
19795;BME280;10057;59.402;17.866;2023-03-19T07:38:12;101365.91;;;4.78;82.77
19795;BME280;10057;59.402;17.866;2023-03-19T07:40:40;101366.75;;;4.81;82.86
19795;BME280;10057;59.402;17.866;2023-03-19T07:43:16;101365.88;;;4.87;82.45
19795;BME280;10057;59.402;17.866;2023-03-19T07:45:43;101364.09;;;4.89;82.69
19795;BME280;10057;59.402;17.866;2023-03-19T07:48:10;101361.47;;;4.90;82.70
19795;BME280;10057;59.402;17.866;2023-03-19T07:50:37;101366.72;;;4.90;82.45
19795;BME280;10057;59.402;17.866;2023-03-19T07:53:04;101362.34;;;4.91;82.72
19795;BME280;10057;59.402;17.866;2023-03-19T07:55:31;101362.34;;;4.92;81.82
19795;BME280;10057;59.402;17.866;2023-03-19T07:57:58;101372.00;;;4.90;81.74
19795;BME280;10057;59.402;17.866;2023-03-19T08:00:25;101376.38;;;4.90;82.02
19795;BME280;10057;59.402;17.866;2023-03-19T08:02:52;101384.25;;;4.93;81.56
19795;BME280;10057;59.402;17.866;2023-03-19T08:05:19;101384.25;;;4.96;82.33
19795;BME280;10057;59.402;17.866;2023-03-19T08:07:47;101390.34;;;5.01;82.01
19795;BME280;10057;59.402;17.866;2023-03-19T08:10:14;101391.22;;;5.06;81.99
19795;BME280;10057;59.402;17.866;2023-03-19T08:12:41;101397.34;;;5.13;82.33
19795;BME280;10057;59.402;17.866;2023-03-19T08:15:09;101394.69;;;5.14;81.73
19795;BME280;10057;59.402;17.866;2023-03-19T08:17:37;101389.44;;;5.14;81.77
19795;BME280;10057;59.402;17.866;2023-03-19T08:20:05;101378.88;;;5.16;81.84
19795;BME280;10057;59.402;17.866;2023-03-19T08:22:35;101382.41;;;5.18;81.65
19795;BME280;10057;59.402;17.866;2023-03-19T08:25:03;101384.13;;;5.19;81.77
19795;BME280;10057;59.402;17.866;2023-03-19T08:27:30;101386.75;;;5.25;81.32
19795;BME280;10057;59.402;17.866;2023-03-19T08:29:57;101383.22;;;5.31;81.37
19795;BME280;10057;59.402;17.866;2023-03-19T08:32:24;101384.94;;;5.35;81.78
19795;BME280;10057;59.402;17.866;2023-03-19T08:34:51;101387.56;;;5.38;81.86
19795;BME280;10057;59.402;17.866;2023-03-19T08:37:18;101374.38;;;5.41;81.35
19795;BME280;10057;59.402;17.866;2023-03-19T08:39:44;101378.72;;;5.46;81.83
19795;BME280;10057;59.402;17.866;2023-03-19T08:42:11;101385.72;;;5.52;81.38
19795;BME280;10057;59.402;17.866;2023-03-19T08:44:38;101391.84;;;5.57;81.28
19795;BME280;10057;59.402;17.866;2023-03-19T08:47:05;101390.06;;;5.58;81.29
19795;BME280;10057;59.402;17.866;2023-03-19T08:49:32;101388.31;;;5.57;81.24
19795;BME280;10057;59.402;17.866;2023-03-19T08:51:58;101382.19;;;5.55;81.16
19795;BME280;10057;59.402;17.866;2023-03-19T08:54:25;101381.31;;;5.57;81.00
19795;BME280;10057;59.402;17.866;2023-03-19T08:56:52;101387.38;;;5.67;81.64
19795;BME280;10057;59.402;17.866;2023-03-19T08:59:18;101400.50;;;5.75;81.66
19795;BME280;10057;59.402;17.866;2023-03-19T09:01:49;101391.69;;;5.77;81.14
19795;BME280;10057;59.402;17.866;2023-03-19T09:04:16;101397.78;;;5.81;81.27
19795;BME280;10057;59.402;17.866;2023-03-19T09:06:43;101390.75;;;5.84;80.76
19795;BME280;10057;59.402;17.866;2023-03-19T09:09:10;101395.09;;;5.90;81.24
19795;BME280;10057;59.402;17.866;2023-03-19T09:11:37;101397.75;;;5.93;81.16
19795;BME280;10057;59.402;17.866;2023-03-19T09:14:03;101396.84;;;5.94;81.21
19795;BME280;10057;59.402;17.866;2023-03-19T09:16:30;101394.22;;;5.96;80.74
19795;BME280;10057;59.402;17.866;2023-03-19T09:18:57;101393.38;;;5.95;80.90
19795;BME280;10057;59.402;17.866;2023-03-19T09:21:24;101386.28;;;6.00;80.95
19795;BME280;10057;59.402;17.866;2023-03-19T09:23:51;101389.78;;;6.05;80.80
19795;BME280;10057;59.402;17.866;2023-03-19T09:26:18;101399.38;;;6.09;80.57
19795;BME280;10057;59.402;17.866;2023-03-19T09:28:44;101400.25;;;6.13;81.33
19795;BME280;10057;59.402;17.866;2023-03-19T09:31:11;101400.19;;;6.17;80.69
19795;BME280;10057;59.402;17.866;2023-03-19T09:33:38;101402.81;;;6.17;80.87
19795;BME280;10057;59.402;17.866;2023-03-19T09:36:05;101394.88;;;6.21;80.54
19795;BME280;10057;59.402;17.866;2023-03-19T09:38:32;101408.03;;;6.22;80.34
19795;BME280;10057;59.402;17.866;2023-03-19T09:49:26;101408.84;;;6.33;79.85
19795;BME280;10057;59.402;17.866;2023-03-19T09:51:53;101401.78;;;6.37;80.43
19795;BME280;10057;59.402;17.866;2023-03-19T09:54:26;101400.84;;;6.41;80.06
19795;BME280;10057;59.402;17.866;2023-03-19T09:56:54;101391.16;;;6.46;80.09
19795;BME280;10057;59.402;17.866;2023-03-19T09:59:23;101397.28;;;6.50;80.09
19795;BME280;10057;59.402;17.866;2023-03-19T10:04:59;101403.31;;;6.56;80.10
19795;BME280;10057;59.402;17.866;2023-03-19T10:07:37;101404.19;;;6.58;80.04
19795;BME280;10057;59.402;17.866;2023-03-19T10:10:24;101402.44;;;6.60;80.31
19795;BME280;10057;59.402;17.866;2023-03-19T10:15:44;101402.34;;;6.68;80.04
19795;BME280;10057;59.402;17.866;2023-03-19T10:18:18;101398.78;;;6.74;80.48
19795;BME280;10057;59.402;17.866;2023-03-19T10:20:58;101402.28;;;6.74;80.01
19795;BME280;10057;59.402;17.866;2023-03-19T10:23:44;101399.66;;;6.73;79.84
19795;BME280;10057;59.402;17.866;2023-03-19T10:26:14;101395.31;;;6.70;79.53
19795;BME280;10057;59.402;17.866;2023-03-19T10:28:43;101392.66;;;6.69;79.55
19795;BME280;10057;59.402;17.866;2023-03-19T10:34:16;101401.44;;;6.71;79.67
19795;BME280;10057;59.402;17.866;2023-03-19T10:36:46;101398.75;;;6.75;79.88
19795;BME280;10057;59.402;17.866;2023-03-19T10:39:15;101398.66;;;6.83;79.65
19795;BME280;10057;59.402;17.866;2023-03-19T10:44:47;101402.00;;;6.97;79.75
19795;BME280;10057;59.402;17.866;2023-03-19T10:47:15;101405.53;;;6.98;79.82
19795;BME280;10057;59.402;17.866;2023-03-19T10:49:43;101402.03;;;6.96;79.53
19795;BME280;10057;59.402;17.866;2023-03-19T10:52:35;101408.16;;;6.99;79.44
19795;BME280;10057;59.402;17.866;2023-03-19T10:55:15;101410.81;;;6.98;79.03
19795;BME280;10057;59.402;17.866;2023-03-19T10:57:45;101405.56;;;6.93;79.42
19795;BME280;10057;59.402;17.866;2023-03-19T11:00:21;101408.22;;;6.93;78.88
19795;BME280;10057;59.402;17.866;2023-03-19T11:02:50;101411.75;;;6.92;79.15
19795;BME280;10057;59.402;17.866;2023-03-19T11:05:27;101410.84;;;6.93;79.21
19795;BME280;10057;59.402;17.866;2023-03-19T11:08:03;101409.94;;;6.96;79.23
19795;BME280;10057;59.402;17.866;2023-03-19T11:10:32;101404.63;;;6.97;78.87
19795;BME280;10057;59.402;17.866;2023-03-19T11:13:23;101412.63;;;6.94;78.68
19795;BME280;10057;59.402;17.866;2023-03-19T11:15:56;101408.28;;;6.88;78.84
19795;BME280;10057;59.402;17.866;2023-03-19T11:18:30;101421.50;;;6.85;78.70
19795;BME280;10057;59.402;17.866;2023-03-19T11:21:07;101417.09;;;6.86;79.04
19795;BME280;10057;59.402;17.866;2023-03-19T11:23:51;101413.53;;;6.87;79.01
19795;BME280;10057;59.402;17.866;2023-03-19T11:26:19;101411.75;;;6.92;79.38
19795;BME280;10057;59.402;17.866;2023-03-19T11:28:50;101406.41;;;6.98;79.26
19795;BME280;10057;59.402;17.866;2023-03-19T11:31:23;101400.22;;;6.99;79.34
19795;BME280;10057;59.402;17.866;2023-03-19T11:44:09;101372.88;;;7.06;78.91
19795;BME280;10057;59.402;17.866;2023-03-19T12:00:49;101370.16;;;7.11;78.98
19795;BME280;10057;59.402;17.866;2023-03-19T12:09:25;101362.88;;;7.30;79.39
19795;BME280;10057;59.402;17.866;2023-03-19T12:11:57;101353.94;;;7.40;78.88
19795;BME280;10057;59.402;17.866;2023-03-19T12:20:29;101353.03;;;7.41;78.73
19795;BME280;10057;59.402;17.866;2023-03-19T12:25:43;101356.50;;;7.45;78.99
19795;BME280;10057;59.402;17.866;2023-03-19T12:28:28;101353.94;;;7.40;78.66
19795;BME280;10057;59.402;17.866;2023-03-19T12:36:18;101350.34;;;7.46;78.99
19795;BME280;10057;59.402;17.866;2023-03-19T12:38:52;101351.19;;;7.49;78.87
19795;BME280;10057;59.402;17.866;2023-03-19T12:41:22;101339.69;;;7.52;78.84
19795;BME280;10057;59.402;17.866;2023-03-19T12:43:57;101344.09;;;7.53;78.75
19795;BME280;10057;59.402;17.866;2023-03-19T12:46:30;101341.44;;;7.53;78.81
19795;BME280;10057;59.402;17.866;2023-03-19T12:51:44;101345.91;;;7.49;78.74
19795;BME280;10057;59.402;17.866;2023-03-19T12:56:59;101337.22;;;7.41;79.08
19795;BME280;10057;59.402;17.866;2023-03-19T13:02:45;101341.66;;;7.38;78.81
19795;BME280;10057;59.402;17.866;2023-03-19T13:08:04;101331.97;;;7.38;78.96
19795;BME280;10057;59.402;17.866;2023-03-19T13:10:36;101328.50;;;7.36;78.84
19795;BME280;10057;59.402;17.866;2023-03-19T13:13:22;101329.41;;;7.35;78.89
19795;BME280;10057;59.402;17.866;2023-03-19T13:15:53;101335.50;;;7.37;79.19
19795;BME280;10057;59.402;17.866;2023-03-19T13:18:37;101325.84;;;7.36;79.08
19795;BME280;10057;59.402;17.866;2023-03-19T13:21:31;101325.81;;;7.39;78.70
19795;BME280;10057;59.402;17.866;2023-03-19T13:26:44;101327.56;;;7.40;79.09
19795;BME280;10057;59.402;17.866;2023-03-19T13:29:24;101327.56;;;7.40;78.89
19795;BME280;10057;59.402;17.866;2023-03-19T13:31:52;101319.63;;;7.40;79.07
19795;BME280;10057;59.402;17.866;2023-03-19T13:34:26;101320.53;;;7.38;79.12
19795;BME280;10057;59.402;17.866;2023-03-19T13:37:00;101322.34;;;7.35;78.86
19795;BME280;10057;59.402;17.866;2023-03-19T13:39:31;101326.75;;;7.33;79.13
19795;BME280;10057;59.402;17.866;2023-03-19T13:42:07;101332.09;;;7.32;79.21
19795;BME280;10057;59.402;17.866;2023-03-19T13:47:36;101322.41;;;7.31;79.36
19795;BME280;10057;59.402;17.866;2023-03-19T13:52:51;101326.81;;;7.32;79.06
19795;BME280;10057;59.402;17.866;2023-03-19T13:58:04;101325.81;;;7.38;79.07
19795;BME280;10057;59.402;17.866;2023-03-19T14:00:56;101324.03;;;7.38;79.26
19795;BME280;10057;59.402;17.866;2023-03-19T14:03:31;101320.50;;;7.41;78.91
19795;BME280;10057;59.402;17.866;2023-03-19T14:05:59;101322.19;;;7.45;79.30
19795;BME280;10057;59.402;17.866;2023-03-19T14:08:43;101318.63;;;7.47;79.23
19795;BME280;10057;59.402;17.866;2023-03-19T14:11:28;101312.44;;;7.48;79.18
19795;BME280;10057;59.402;17.866;2023-03-19T14:13:59;101308.03;;;7.50;79.06
19795;BME280;10057;59.402;17.866;2023-03-19T14:16:34;101304.53;;;7.48;78.89
19795;BME280;10057;59.402;17.866;2023-03-19T14:19:08;101299.25;;;7.48;79.00
19795;BME280;10057;59.402;17.866;2023-03-19T14:22:06;101292.22;;;7.49;78.96
19795;BME280;10057;59.402;17.866;2023-03-19T14:24:36;101286.00;;;7.51;79.00
19795;BME280;10057;59.402;17.866;2023-03-19T14:27:30;101290.41;;;7.52;78.88
19795;BME280;10057;59.402;17.866;2023-03-19T14:30:09;101289.50;;;7.53;79.07